sensor_id;sensor_type;location;lat;lon;timestamp;pressure;altitude;pressure_sealevel;temperature;humidity
35443;BME280;21561;55.654;37.592;2023-01-25T00:00:27;100866.66;;;-1.87;95.38
35443;BME280;21561;55.654;37.592;2023-01-25T00:02:54;100863.41;;;-1.85;96.02
35443;BME280;21561;55.654;37.592;2023-01-25T00:05:21;100866.34;;;-1.79;96.20
35443;BME280;21561;55.654;37.592;2023-01-25T00:07:47;100859.69;;;-1.77;95.67
35443;BME280;21561;55.654;37.592;2023-01-25T00:10:14;100861.28;;;-1.79;95.21
35443;BME280;21561;55.654;37.592;2023-01-25T00:12:41;100851.88;;;-1.80;95.07
35443;BME280;21561;55.654;37.592;2023-01-25T00:15:08;100850.13;;;-1.81;95.31
35443;BME280;21561;55.654;37.592;2023-01-25T00:17:36;100842.50;;;-1.81;94.58
35443;BME280;21561;55.654;37.592;2023-01-25T00:20:03;100846.97;;;-1.77;94.72
35443;BME280;21561;55.654;37.592;2023-01-25T00:22:30;100853.84;;;-1.76;94.02
35443;BME280;21561;55.654;37.592;2023-01-25T00:24:57;100849.16;;;-1.83;94.28
35443;BME280;21561;55.654;37.592;2023-01-25T00:27:24;100840.72;;;-1.82;94.05
35443;BME280;21561;55.654;37.592;2023-01-25T00:29:50;100835.63;;;-1.82;94.03
35443;BME280;21561;55.654;37.592;2023-01-25T00:34:48;100835.03;;;-1.78;93.24
35443;BME280;21561;55.654;37.592;2023-01-25T00:39:54;100833.56;;;-1.74;93.12
35443;BME280;21561;55.654;37.592;2023-01-25T00:42:21;100835.22;;;-1.75;91.95
35443;BME280;21561;55.654;37.592;2023-01-25T00:44:48;100833.47;;;-1.76;92.50
35443;BME280;21561;55.654;37.592;2023-01-25T00:47:15;100823.47;;;-1.73;92.36
35443;BME280;21561;55.654;37.592;2023-01-25T00:49:43;100823.84;;;-1.66;92.53
35443;BME280;21561;55.654;37.592;2023-01-25T00:52:11;100822.09;;;-1.67;91.78
35443;BME280;21561;55.654;37.592;2023-01-25T00:54:38;100810.53;;;-1.62;91.95
35443;BME280;21561;55.654;37.592;2023-01-25T00:57:07;100809.03;;;-1.59;92.10
35443;BME280;21561;55.654;37.592;2023-01-25T00:59:34;100807.19;;;-1.61;91.97
35443;BME280;21561;55.654;37.592;2023-01-25T01:02:02;100799.66;;;-1.60;92.07
35443;BME280;21561;55.654;37.592;2023-01-25T01:04:29;100803.44;;;-1.53;92.17
35443;BME280;21561;55.654;37.592;2023-01-25T01:06:56;100802.66;;;-1.52;91.53
35443;BME280;21561;55.654;37.592;2023-01-25T01:09:23;100797.56;;;-1.52;91.68
35443;BME280;21561;55.654;37.592;2023-01-25T01:11:50;100801.06;;;-1.50;91.46
35443;BME280;21561;55.654;37.592;2023-01-25T01:14:18;100805.09;;;-1.54;91.93
35443;BME280;21561;55.654;37.592;2023-01-25T01:16:45;100796.69;;;-1.52;92.02
35443;BME280;21561;55.654;37.592;2023-01-25T01:19:12;100794.94;;;-1.54;92.09
35443;BME280;21561;55.654;37.592;2023-01-25T01:21:39;100788.78;;;-1.57;91.99
35443;BME280;21561;55.654;37.592;2023-01-25T01:24:08;100801.31;;;-1.60;91.70
35443;BME280;21561;55.654;37.592;2023-01-25T01:26:35;100794.91;;;-1.68;91.73
35443;BME280;21561;55.654;37.592;2023-01-25T01:29:03;100783.91;;;-1.67;92.02
35443;BME280;21561;55.654;37.592;2023-01-25T01:31:30;100787.84;;;-1.73;92.26
35443;BME280;21561;55.654;37.592;2023-01-25T01:33:57;100781.19;;;-1.70;92.54
35443;BME280;21561;55.654;37.592;2023-01-25T01:36:26;100784.88;;;-1.65;92.70
35443;BME280;21561;55.654;37.592;2023-01-25T01:38:54;100782.44;;;-1.64;92.42
35443;BME280;21561;55.654;37.592;2023-01-25T01:41:21;100772.25;;;-1.64;92.34
35443;BME280;21561;55.654;37.592;2023-01-25T01:43:48;100768.63;;;-1.67;92.36
35443;BME280;21561;55.654;37.592;2023-01-25T01:48:49;100768.88;;;-1.78;91.75
35443;BME280;21561;55.654;37.592;2023-01-25T01:53:53;100780.47;;;-1.83;91.55
35443;BME280;21561;55.654;37.592;2023-01-25T01:56:34;100765.00;;;-1.86;92.21
35443;BME280;21561;55.654;37.592;2023-01-25T01:59:04;100759.72;;;-1.89;92.61
35443;BME280;21561;55.654;37.592;2023-01-25T02:01:32;100757.78;;;-1.93;93.00
35443;BME280;21561;55.654;37.592;2023-01-25T02:03:59;100749.34;;;-1.92;93.15
35443;BME280;21561;55.654;37.592;2023-01-25T02:06:32;100749.53;;;-1.89;93.30
35443;BME280;21561;55.654;37.592;2023-01-25T02:09:00;100751.47;;;-1.85;93.86
35443;BME280;21561;55.654;37.592;2023-01-25T02:11:28;100747.63;;;-1.78;93.76
35443;BME280;21561;55.654;37.592;2023-01-25T02:13:57;100745.56;;;-1.70;93.85
35443;BME280;21561;55.654;37.592;2023-01-25T02:16:26;100751.72;;;-1.67;94.06
35443;BME280;21561;55.654;37.592;2023-01-25T02:18:55;100753.22;;;-1.70;95.15
35443;BME280;21561;55.654;37.592;2023-01-25T02:21:23;100751.06;;;-1.78;96.22
35443;BME280;21561;55.654;37.592;2023-01-25T02:24:00;100756.72;;;-1.68;96.19
35443;BME280;21561;55.654;37.592;2023-01-25T02:26:30;100767.41;;;-1.74;96.71
35443;BME280;21561;55.654;37.592;2023-01-25T02:29:04;100766.72;;;-1.85;97.59
35443;BME280;21561;55.654;37.592;2023-01-25T02:31:32;100751.31;;;-1.88;98.17
35443;BME280;21561;55.654;37.592;2023-01-25T02:33:59;100756.19;;;-1.91;98.75
35443;BME280;21561;55.654;37.592;2023-01-25T02:36:31;100749.72;;;-1.86;98.66
35443;BME280;21561;55.654;37.592;2023-01-25T02:39:04;100759.91;;;-1.86;99.27
35443;BME280;21561;55.654;37.592;2023-01-25T02:41:39;100759.91;;;-1.86;99.01
35443;BME280;21561;55.654;37.592;2023-01-25T02:44:14;100760.09;;;-1.83;99.13
35443;BME280;21561;55.654;37.592;2023-01-25T02:46:43;100757.72;;;-1.80;99.00
35443;BME280;21561;55.654;37.592;2023-01-25T02:49:16;100756.66;;;-1.83;98.94
35443;BME280;21561;55.654;37.592;2023-01-25T02:51:46;100762.03;;;-1.79;98.75
35443;BME280;21561;55.654;37.592;2023-01-25T02:54:16;100761.84;;;-1.82;98.52
35443;BME280;21561;55.654;37.592;2023-01-25T02:56:43;100769.47;;;-1.82;98.51
35443;BME280;21561;55.654;37.592;2023-01-25T02:59:11;100767.13;;;-1.79;98.16
35443;BME280;21561;55.654;37.592;2023-01-25T03:01:40;100767.78;;;-1.81;97.82
35443;BME280;21561;55.654;37.592;2023-01-25T03:04:08;100764.81;;;-1.89;97.71
35443;BME280;21561;55.654;37.592;2023-01-25T03:06:35;100764.44;;;-1.95;98.25
35443;BME280;21561;55.654;37.592;2023-01-25T03:09:04;100772.06;;;-1.95;98.99
35443;BME280;21561;55.654;37.592;2023-01-25T03:11:32;100767.75;;;-1.96;98.85
35443;BME280;21561;55.654;37.592;2023-01-25T03:13:59;100759.16;;;-1.98;99.12
35443;BME280;21561;55.654;37.592;2023-01-25T03:16:26;100761.69;;;-1.98;99.09
35443;BME280;21561;55.654;37.592;2023-01-25T03:18:54;100760.03;;;-1.98;99.33
35443;BME280;21561;55.654;37.592;2023-01-25T03:21:22;100751.53;;;-1.98;99.45
35443;BME280;21561;55.654;37.592;2023-01-25T03:23:58;100744.97;;;-1.95;99.52
35443;BME280;21561;55.654;37.592;2023-01-25T03:26:26;100739.78;;;-1.96;99.54
35443;BME280;21561;55.654;37.592;2023-01-25T03:28:53;100740.75;;;-1.94;99.48
35443;BME280;21561;55.654;37.592;2023-01-25T03:31:20;100738.19;;;-1.94;99.71
35443;BME280;21561;55.654;37.592;2023-01-25T03:33:47;100737.63;;;-1.90;99.50
35443;BME280;21561;55.654;37.592;2023-01-25T03:36:15;100724.09;;;-1.89;98.87
35443;BME280;21561;55.654;37.592;2023-01-25T03:38:42;100731.91;;;-1.86;98.94
35443;BME280;21561;55.654;37.592;2023-01-25T03:41:09;100729.38;;;-1.86;98.96
35443;BME280;21561;55.654;37.592;2023-01-25T03:43:38;100726.03;;;-1.85;99.19
35443;BME280;21561;55.654;37.592;2023-01-25T03:46:05;100724.72;;;-1.93;98.76
35443;BME280;21561;55.654;37.592;2023-01-25T03:48:32;100736.25;;;-1.98;99.40
35443;BME280;21561;55.654;37.592;2023-01-25T03:51:00;100732.84;;;-1.99;99.71
35443;BME280;21561;55.654;37.592;2023-01-25T03:53:28;100733.91;;;-1.95;99.87
35443;BME280;21561;55.654;37.592;2023-01-25T03:56:01;100740.06;;;-1.92;99.53
35443;BME280;21561;55.654;37.592;2023-01-25T03:58:29;100742.31;;;-1.96;98.75
35443;BME280;21561;55.654;37.592;2023-01-25T04:00:58;100732.94;;;-1.97;98.78
35443;BME280;21561;55.654;37.592;2023-01-25T04:03:26;100740.75;;;-1.94;98.79
35443;BME280;21561;55.654;37.592;2023-01-25T04:05:57;100747.59;;;-1.93;98.81
35443;BME280;21561;55.654;37.592;2023-01-25T04:08:25;100745.84;;;-1.94;99.12
35443;BME280;21561;55.654;37.592;2023-01-25T04:11:03;100746.78;;;-1.92;99.72
35443;BME280;21561;55.654;37.592;2023-01-25T04:13:31;100739.50;;;-2.01;99.75
35443;BME280;21561;55.654;37.592;2023-01-25T04:16:01;100740.38;;;-2.00;99.96
35443;BME280;21561;55.654;37.592;2023-01-25T04:18:28;100730.22;;;-2.00;100.00
35443;BME280;21561;55.654;37.592;2023-01-25T04:20:56;100729.59;;;-1.96;100.00
35443;BME280;21561;55.654;37.592;2023-01-25T04:23:24;100732.34;;;-1.93;100.00
35443;BME280;21561;55.654;37.592;2023-01-25T04:25:56;100726.19;;;-1.97;99.83
35443;BME280;21561;55.654;37.592;2023-01-25T04:28:24;100726.00;;;-2.00;100.00
35443;BME280;21561;55.654;37.592;2023-01-25T04:30:53;100736.69;;;-2.05;100.00
35443;BME280;21561;55.654;37.592;2023-01-25T04:33:20;100738.75;;;-2.13;100.00
35443;BME280;21561;55.654;37.592;2023-01-25T04:35:48;100732.59;;;-2.17;100.00
35443;BME280;21561;55.654;37.592;2023-01-25T04:38:15;100734.34;;;-2.16;100.00
35443;BME280;21561;55.654;37.592;2023-01-25T04:40:43;100736.38;;;-2.10;100.00
35443;BME280;21561;55.654;37.592;2023-01-25T04:43:12;100735.72;;;-2.07;100.00
35443;BME280;21561;55.654;37.592;2023-01-25T04:45:39;100734.44;;;-2.14;99.89
35443;BME280;21561;55.654;37.592;2023-01-25T04:48:08;100744.91;;;-2.09;100.00
35443;BME280;21561;55.654;37.592;2023-01-25T04:50:36;100741.75;;;-2.05;99.96
35443;BME280;21561;55.654;37.592;2023-01-25T04:53:04;100740.19;;;-2.03;99.35
35443;BME280;21561;55.654;37.592;2023-01-25T04:55:31;100757.63;;;-2.09;97.90
35443;BME280;21561;55.654;37.592;2023-01-25T04:58:00;100753.13;;;-2.14;97.75
35443;BME280;21561;55.654;37.592;2023-01-25T05:00:27;100747.25;;;-2.13;97.59
35443;BME280;21561;55.654;37.592;2023-01-25T05:02:55;100744.91;;;-2.09;97.66
35443;BME280;21561;55.654;37.592;2023-01-25T05:05:21;100758.19;;;-2.14;97.61
35443;BME280;21561;55.654;37.592;2023-01-25T05:07:48;100753.31;;;-2.11;97.97
35443;BME280;21561;55.654;37.592;2023-01-25T05:10:15;100757.69;;;-1.95;98.64
35443;BME280;21561;55.654;37.592;2023-01-25T05:12:42;100751.44;;;-2.00;97.06
35443;BME280;21561;55.654;37.592;2023-01-25T05:15:09;100750.16;;;-2.06;97.24
35443;BME280;21561;55.654;37.592;2023-01-25T05:17:37;100750.00;;;-2.09;97.37
35443;BME280;21561;55.654;37.592;2023-01-25T05:20:04;100747.34;;;-2.11;97.09
35443;BME280;21561;55.654;37.592;2023-01-25T05:22:32;100750.56;;;-2.14;96.82
35443;BME280;21561;55.654;37.592;2023-01-25T05:24:58;100743.84;;;-2.13;96.97
35443;BME280;21561;55.654;37.592;2023-01-25T05:27:28;100757.63;;;-2.09;96.83
35443;BME280;21561;55.654;37.592;2023-01-25T05:29:56;100753.50;;;-2.07;96.58
35443;BME280;21561;55.654;37.592;2023-01-25T05:32:23;100753.72;;;-2.04;96.41
35443;BME280;21561;55.654;37.592;2023-01-25T05:34:50;100753.72;;;-2.04;96.12
35443;BME280;21561;55.654;37.592;2023-01-25T05:37:18;100753.88;;;-2.01;96.17
35443;BME280;21561;55.654;37.592;2023-01-25T05:39:46;100756.81;;;-2.08;95.35
35443;BME280;21561;55.654;37.592;2023-01-25T05:42:15;100756.66;;;-2.12;95.22
35443;BME280;21561;55.654;37.592;2023-01-25T05:44:43;100755.00;;;-2.11;95.55
35443;BME280;21561;55.654;37.592;2023-01-25T05:47:15;100761.56;;;-2.15;95.50
35443;BME280;21561;55.654;37.592;2023-01-25T05:49:42;100752.75;;;-2.20;95.08
35443;BME280;21561;55.654;37.592;2023-01-25T05:52:13;100753.47;;;-2.22;95.70
35443;BME280;21561;55.654;37.592;2023-01-25T05:54:40;100755.09;;;-2.23;95.81
35443;BME280;21561;55.654;37.592;2023-01-25T05:57:07;100755.91;;;-2.24;95.19
35443;BME280;21561;55.654;37.592;2023-01-25T05:59:34;100745.53;;;-2.27;94.88
35443;BME280;21561;55.654;37.592;2023-01-25T06:02:01;100740.25;;;-2.30;94.61
35443;BME280;21561;55.654;37.592;2023-01-25T06:04:28;100742.88;;;-2.28;94.64
35443;BME280;21561;55.654;37.592;2023-01-25T06:06:55;100734.50;;;-2.27;94.70
35443;BME280;21561;55.654;37.592;2023-01-25T06:09:22;100738.97;;;-2.23;94.92
35443;BME280;21561;55.654;37.592;2023-01-25T06:11:49;100744.53;;;-2.16;95.16
35443;BME280;21561;55.654;37.592;2023-01-25T06:14:16;100748.44;;;-2.07;95.08
35443;BME280;21561;55.654;37.592;2023-01-25T06:16:42;100751.94;;;-2.05;94.65
35443;BME280;21561;55.654;37.592;2023-01-25T06:19:11;100748.44;;;-2.07;94.53
35443;BME280;21561;55.654;37.592;2023-01-25T06:21:38;100742.94;;;-2.14;94.81
35443;BME280;21561;55.654;37.592;2023-01-25T06:24:06;100750.41;;;-2.17;94.90
35443;BME280;21561;55.654;37.592;2023-01-25T06:26:33;100738.47;;;-2.18;95.01
35443;BME280;21561;55.654;37.592;2023-01-25T06:29:00;100747.66;;;-2.20;95.31
35443;BME280;21561;55.654;37.592;2023-01-25T06:31:26;100742.59;;;-2.20;95.45
35443;BME280;21561;55.654;37.592;2023-01-25T06:33:53;100737.50;;;-2.20;95.37
35443;BME280;21561;55.654;37.592;2023-01-25T06:36:21;100738.47;;;-2.18;95.64
35443;BME280;21561;55.654;37.592;2023-01-25T06:38:49;100737.59;;;-2.18;95.66
35443;BME280;21561;55.654;37.592;2023-01-25T06:41:17;100740.13;;;-2.18;95.49
35443;BME280;21561;55.654;37.592;2023-01-25T06:43:44;100744.53;;;-2.16;95.60
35443;BME280;21561;55.654;37.592;2023-01-25T06:46:12;100744.53;;;-2.16;95.31
35443;BME280;21561;55.654;37.592;2023-01-25T06:48:39;100745.13;;;-2.20;95.41
35443;BME280;21561;55.654;37.592;2023-01-25T06:51:11;100739.28;;;-2.19;95.42
35443;BME280;21561;55.654;37.592;2023-01-25T06:53:41;100744.53;;;-2.16;95.47
35443;BME280;21561;55.654;37.592;2023-01-25T06:56:10;100758.03;;;-2.17;95.01
35443;BME280;21561;55.654;37.592;2023-01-25T06:58:38;100752.56;;;-2.23;95.16
35443;BME280;21561;55.654;37.592;2023-01-25T07:01:17;100752.94;;;-2.17;95.24
35443;BME280;21561;55.654;37.592;2023-01-25T07:03:52;100759.41;;;-2.22;95.29
35443;BME280;21561;55.654;37.592;2023-01-25T07:06:19;100758.72;;;-2.19;95.30
35443;BME280;21561;55.654;37.592;2023-01-25T07:08:47;100760.28;;;-2.21;95.53
35443;BME280;21561;55.654;37.592;2023-01-25T07:11:14;100754.31;;;-2.22;95.97
35443;BME280;21561;55.654;37.592;2023-01-25T07:13:43;100756.06;;;-2.21;96.28
35443;BME280;21561;55.654;37.592;2023-01-25T07:16:15;100754.13;;;-2.25;96.51
35443;BME280;21561;55.654;37.592;2023-01-25T07:18:43;100754.31;;;-2.22;96.79
35443;BME280;21561;55.654;37.592;2023-01-25T07:21:12;100759.63;;;-2.19;97.01
35443;BME280;21561;55.654;37.592;2023-01-25T07:23:40;100746.59;;;-2.23;97.06
35443;BME280;21561;55.654;37.592;2023-01-25T07:26:15;100741.00;;;-2.18;97.32
35443;BME280;21561;55.654;37.592;2023-01-25T07:28:44;100743.19;;;-2.24;97.27
35443;BME280;21561;55.654;37.592;2023-01-25T07:31:11;100736.44;;;-2.23;97.24
35443;BME280;21561;55.654;37.592;2023-01-25T07:33:38;100742.47;;;-2.21;97.54
35443;BME280;21561;55.654;37.592;2023-01-25T07:36:06;100750.13;;;-2.21;97.26
35443;BME280;21561;55.654;37.592;2023-01-25T07:38:35;100737.31;;;-2.23;97.51
35443;BME280;21561;55.654;37.592;2023-01-25T07:41:03;100748.19;;;-2.25;97.47
35443;BME280;21561;55.654;37.592;2023-01-25T07:43:30;100751.03;;;-2.34;97.77
35443;BME280;21561;55.654;37.592;2023-01-25T07:46:02;100754.84;;;-2.27;97.95
35443;BME280;21561;55.654;37.592;2023-01-25T07:48:30;100748.69;;;-2.31;97.72
35443;BME280;21561;55.654;37.592;2023-01-25T07:50:59;100743.19;;;-2.37;98.42
35443;BME280;21561;55.654;37.592;2023-01-25T07:53:42;100743.19;;;-2.37;98.88
35443;BME280;21561;55.654;37.592;2023-01-25T07:56:11;100740.75;;;-2.36;99.07
35443;BME280;21561;55.654;37.592;2023-01-25T07:58:38;100739.38;;;-2.31;98.77
35443;BME280;21561;55.654;37.592;2023-01-25T08:01:17;100736.63;;;-2.20;98.45
35443;BME280;21561;55.654;37.592;2023-01-25T08:03:47;100743.19;;;-2.24;98.34
35443;BME280;21561;55.654;37.592;2023-01-25T08:06:14;100727.94;;;-2.24;98.32
35443;BME280;21561;55.654;37.592;2023-01-25T08:08:47;100729.09;;;-2.19;98.35
35443;BME280;21561;55.654;37.592;2023-01-25T08:11:22;100730.16;;;-2.15;97.67
35443;BME280;21561;55.654;37.592;2023-01-25T08:13:49;100726.56;;;-2.19;98.19
35443;BME280;21561;55.654;37.592;2023-01-25T08:16:18;100729.81;;;-2.06;98.27
35443;BME280;21561;55.654;37.592;2023-01-25T08:19:02;100730.56;;;-1.94;97.92
35443;BME280;21561;55.654;37.592;2023-01-25T08:21:43;100726.38;;;-1.94;98.01
35443;BME280;21561;55.654;37.592;2023-01-25T08:26:51;100718.81;;;-1.92;98.04
35443;BME280;21561;55.654;37.592;2023-01-25T08:29:18;100723.41;;;-1.86;97.82
35443;BME280;21561;55.654;37.592;2023-01-25T08:31:45;100729.00;;;-1.92;97.52
35443;BME280;21561;55.654;37.592;2023-01-25T08:34:12;100721.28;;;-1.94;97.31
35443;BME280;21561;55.654;37.592;2023-01-25T08:36:40;100729.00;;;-1.92;97.30
35443;BME280;21561;55.654;37.592;2023-01-25T08:39:09;100729.69;;;-1.95;96.84
35443;BME280;21561;55.654;37.592;2023-01-25T08:41:37;100731.19;;;-1.98;97.09
35443;BME280;21561;55.654;37.592;2023-01-25T08:44:04;100725.13;;;-2.00;96.94
35443;BME280;21561;55.654;37.592;2023-01-25T08:46:32;100725.47;;;-1.94;97.05
35443;BME280;21561;55.654;37.592;2023-01-25T08:49:00;100723.91;;;-1.92;96.89
35443;BME280;21561;55.654;37.592;2023-01-25T08:51:28;100716.88;;;-1.96;96.80
35443;BME280;21561;55.654;37.592;2023-01-25T08:54:04;100720.50;;;-1.93;96.89
35443;BME280;21561;55.654;37.592;2023-01-25T08:56:32;100707.94;;;-2.04;97.15
35443;BME280;21561;55.654;37.592;2023-01-25T08:58:59;100699.69;;;-2.00;97.28
35443;BME280;21561;55.654;37.592;2023-01-25T09:01:25;100701.25;;;-2.02;97.03
35443;BME280;21561;55.654;37.592;2023-01-25T09:03:52;100699.69;;;-2.00;96.45
35443;BME280;21561;55.654;37.592;2023-01-25T09:06:20;100684.63;;;-1.97;96.53
35443;BME280;21561;55.654;37.592;2023-01-25T09:08:47;100678.81;;;-1.95;96.15
35443;BME280;21561;55.654;37.592;2023-01-25T09:11:18;100679.16;;;-1.88;96.22
35443;BME280;21561;55.654;37.592;2023-01-25T09:13:46;100681.66;;;-1.90;95.93
35443;BME280;21561;55.654;37.592;2023-01-25T09:16:19;100673.41;;;-1.86;95.58
35443;BME280;21561;55.654;37.592;2023-01-25T09:18:58;100671.63;;;-1.87;95.64
35443;BME280;21561;55.654;37.592;2023-01-25T09:21:26;100670.75;;;-1.87;95.77
35443;BME280;21561;55.654;37.592;2023-01-25T09:23:53;100666.53;;;-1.87;95.65
35443;BME280;21561;55.654;37.592;2023-01-25T09:26:36;100672.16;;;-1.78;95.86
35443;BME280;21561;55.654;37.592;2023-01-25T09:29:04;100665.03;;;-1.98;95.88
35443;BME280;21561;55.654;37.592;2023-01-25T09:31:33;100677.22;;;-2.07;96.42
35443;BME280;21561;55.654;37.592;2023-01-25T09:34:01;100671.94;;;-2.11;96.79
35443;BME280;21561;55.654;37.592;2023-01-25T09:36:28;100672.53;;;-2.15;97.13
35443;BME280;21561;55.654;37.592;2023-01-25T09:38:55;100657.28;;;-2.15;97.60
35443;BME280;21561;55.654;37.592;2023-01-25T09:46:57;100634.59;;;-2.12;98.52
35443;BME280;21561;55.654;37.592;2023-01-25T09:52:20;100632.41;;;-2.05;99.00
35443;BME280;21561;55.654;37.592;2023-01-25T09:54:50;100632.81;;;-2.13;98.93
35443;BME280;21561;55.654;37.592;2023-01-25T09:57:29;100624.03;;;-2.18;99.17
35443;BME280;21561;55.654;37.592;2023-01-25T09:59:59;100618.31;;;-2.28;99.50
35443;BME280;21561;55.654;37.592;2023-01-25T10:05:12;100608.84;;;-2.31;99.89
35443;BME280;21561;55.654;37.592;2023-01-25T10:07:58;100607.38;;;-2.27;100.00
35443;BME280;21561;55.654;37.592;2023-01-25T10:10:31;100605.16;;;-2.36;99.75
35443;BME280;21561;55.654;37.592;2023-01-25T10:13:00;100607.50;;;-2.39;100.00
35443;BME280;21561;55.654;37.592;2023-01-25T10:15:35;100598.41;;;-2.36;99.76
35443;BME280;21561;55.654;37.592;2023-01-25T10:18:26;100591.06;;;-2.31;99.58
35443;BME280;21561;55.654;37.592;2023-01-25T10:20:57;100587.91;;;-2.27;99.01
35443;BME280;21561;55.654;37.592;2023-01-25T10:26:13;100584.19;;;-2.32;98.34
35443;BME280;21561;55.654;37.592;2023-01-25T10:29:18;100595.06;;;-2.35;98.33
35443;BME280;21561;55.654;37.592;2023-01-25T10:32:10;100596.72;;;-2.35;97.74
35443;BME280;21561;55.654;37.592;2023-01-25T10:34:46;100583.31;;;-2.47;97.05
35443;BME280;21561;55.654;37.592;2023-01-25T10:37:27;100596.16;;;-2.44;97.26
35443;BME280;21561;55.654;37.592;2023-01-25T10:40:14;100593.13;;;-2.39;96.60
35443;BME280;21561;55.654;37.592;2023-01-25T10:42:53;100583.66;;;-2.41;96.02
35443;BME280;21561;55.654;37.592;2023-01-25T10:45:21;100594.78;;;-2.39;96.22
35443;BME280;21561;55.654;37.592;2023-01-25T10:48:00;100588.59;;;-2.29;96.42
35443;BME280;21561;55.654;37.592;2023-01-25T10:53:22;100582.81;;;-2.27;95.15
35443;BME280;21561;55.654;37.592;2023-01-25T10:58:38;100567.22;;;-2.33;94.77
35443;BME280;21561;55.654;37.592;2023-01-25T11:01:12;100561.09;;;-2.22;94.39
35443;BME280;21561;55.654;37.592;2023-01-25T11:03:42;100550.91;;;-2.22;92.92
35443;BME280;21561;55.654;37.592;2023-01-25T11:06:12;100559.31;;;-2.23;91.99
35443;BME280;21561;55.654;37.592;2023-01-25T11:08:40;100562.28;;;-2.30;90.77
35443;BME280;21561;55.654;37.592;2023-01-25T11:11:35;100550.53;;;-2.28;90.60
35443;BME280;21561;55.654;37.592;2023-01-25T11:14:17;100545.44;;;-2.28;90.95
35443;BME280;21561;55.654;37.592;2023-01-25T11:16:45;100542.56;;;-2.19;91.55
35443;BME280;21561;55.654;37.592;2023-01-25T11:21:55;100540.75;;;-2.22;90.75
35443;BME280;21561;55.654;37.592;2023-01-25T11:24:30;100531.53;;;-2.20;91.12
35443;BME280;21561;55.654;37.592;2023-01-25T11:27:25;100533.22;;;-2.05;91.57
35443;BME280;21561;55.654;37.592;2023-01-25T11:32:32;100526.53;;;-2.18;91.00
35443;BME280;21561;55.654;37.592;2023-01-25T11:34:59;100521.47;;;-2.18;91.58
35443;BME280;21561;55.654;37.592;2023-01-25T11:40:32;100512.16;;;-2.03;92.14
35443;BME280;21561;55.654;37.592;2023-01-25T11:43:20;100508.50;;;-2.08;91.85
35443;BME280;21561;55.654;37.592;2023-01-25T11:57:14;100501.47;;;-1.97;91.54
35443;BME280;21561;55.654;37.592;2023-01-25T12:00:26;100509.34;;;-2.07;90.69
35443;BME280;21561;55.654;37.592;2023-01-25T12:11:12;100501.13;;;-2.18;91.27
35443;BME280;21561;55.654;37.592;2023-01-25T12:21:56;100517.41;;;-2.29;90.56
35443;BME280;21561;55.654;37.592;2023-01-25T12:24:47;100517.91;;;-2.35;90.86
35443;BME280;21561;55.654;37.592;2023-01-25T12:27:33;100502.50;;;-2.38;91.12
35443;BME280;21561;55.654;37.592;2023-01-25T12:37:52;100504.75;;;-2.43;91.78
35443;BME280;21561;55.654;37.592;2023-01-25T12:43:17;100506.53;;;-2.42;92.24
35443;BME280;21561;55.654;37.592;2023-01-25T12:45:47;100520.72;;;-2.45;92.33
35443;BME280;21561;55.654;37.592;2023-01-25T12:48:20;100508.03;;;-2.45;92.30
35443;BME280;21561;55.654;37.592;2023-01-25T12:50:55;100488.28;;;-2.50;92.63
35443;BME280;21561;55.654;37.592;2023-01-25T12:53:31;100481.78;;;-2.44;93.09
35443;BME280;21561;55.654;37.592;2023-01-25T12:55:59;100478.47;;;-2.43;92.82
35443;BME280;21561;55.654;37.592;2023-01-25T12:58:52;100467.97;;;-2.35;92.97
35443;BME280;21561;55.654;37.592;2023-01-25T13:07:11;100467.44;;;-2.29;92.84
35443;BME280;21561;55.654;37.592;2023-01-25T13:09:50;100466.28;;;-2.34;93.19
35443;BME280;21561;55.654;37.592;2023-01-25T13:12:19;100462.97;;;-2.33;93.37
35443;BME280;21561;55.654;37.592;2023-01-25T13:14:46;100464.09;;;-2.28;93.23
35443;BME280;21561;55.654;37.592;2023-01-25T13:19:54;100456.03;;;-2.21;93.27
35443;BME280;21561;55.654;37.592;2023-01-25T13:25:20;100442.72;;;-2.17;93.36
35443;BME280;21561;55.654;37.592;2023-01-25T13:27:47;100440.09;;;-2.18;93.45
35443;BME280;21561;55.654;37.592;2023-01-25T13:38:03;100432.00;;;-2.11;93.43
35443;BME280;21561;55.654;37.592;2023-01-25T13:40:36;100423.56;;;-2.10;93.22
35443;BME280;21561;55.654;37.592;2023-01-25T13:43:18;100423.06;;;-2.04;93.56
35443;BME280;21561;55.654;37.592;2023-01-25T13:45:46;100411.84;;;-2.08;93.53
35443;BME280;21561;55.654;37.592;2023-01-25T13:48:23;100411.50;;;-2.14;93.92
35443;BME280;21561;55.654;37.592;2023-01-25T13:50:57;100417.97;;;-2.19;94.17
35443;BME280;21561;55.654;37.592;2023-01-25T13:53:26;100394.69;;;-2.27;94.52
35443;BME280;21561;55.654;37.592;2023-01-25T13:55:58;100391.19;;;-2.29;94.68
35443;BME280;21561;55.654;37.592;2023-01-25T14:01:00;100386.63;;;-2.35;95.20
35443;BME280;21561;55.654;37.592;2023-01-25T14:03:35;100393.78;;;-2.42;95.92
35443;BME280;21561;55.654;37.592;2023-01-25T14:06:06;100375.75;;;-2.47;95.93
35443;BME280;21561;55.654;37.592;2023-01-25T14:08:41;100376.44;;;-2.50;96.54
35443;BME280;21561;55.654;37.592;2023-01-25T14:11:09;100376.63;;;-2.46;96.41
35443;BME280;21561;55.654;37.592;2023-01-25T14:13:35;100364.88;;;-2.44;96.23
35443;BME280;21561;55.654;37.592;2023-01-25T14:16:08;100362.00;;;-2.51;96.48
35443;BME280;21561;55.654;37.592;2023-01-25T14:18:35;100367.78;;;-2.53;96.59
35443;BME280;21561;55.654;37.592;2023-01-25T14:21:16;100362.00;;;-2.51;96.59
35443;BME280;21561;55.654;37.592;2023-01-25T14:23:44;100356.66;;;-2.55;96.24
35443;BME280;21561;55.654;37.592;2023-01-25T14:26:30;100359.66;;;-2.47;96.62
35443;BME280;21561;55.654;37.592;2023-01-25T14:28:57;100368.66;;;-2.53;96.63
35443;BME280;21561;55.654;37.592;2023-01-25T14:31:33;100368.22;;;-2.45;96.65
35443;BME280;21561;55.654;37.592;2023-01-25T14:34:02;100369.97;;;-2.44;96.46
35443;BME280;21561;55.654;37.592;2023-01-25T14:36:32;100367.31;;;-2.46;96.45